Terminal Aerodrome Forecast
Issued by NWS Shreveport, LA

Home | Current Version | Previous Version | Text Only | Print | Product List | Glossary On
Versions: 1 2 3 4 5 6 7 8 9 10 11 12 13 14 15 16 17 18 19
000
FTUS44 KSHV 180800 AAA
TAFLFK
TAF AMD
KLFK 180809Z 1808/1906 12004KT 3SM BR BKN002
      TEMPO 1808/1812 1/4SM FG VV001
     FM181300 15004KT P6SM SCT025 BKN250
      TEMPO 1813/1815 BKN015
     FM181700 15006KT P6SM VCTS BKN040CB BKN100
     FM190400 14003KT P6SM BKN120 BKN250=

USA.gov is the U.S. government's official web portal to all federal, state and local government web resources and services.